sensor_id;sensor_type;location;lat;lon;timestamp;pressure;altitude;pressure_sealevel;temperature;humidity
73594;BME280;64760;53.404;23.498;2022-10-31T00:00:24;99902.88;;;5.21;95.44
73594;BME280;64760;53.404;23.498;2022-10-31T00:03:10;99919.66;;;4.96;94.90
73594;BME280;64760;53.404;23.498;2022-10-31T00:05:40;99911.59;;;5.05;95.66
73594;BME280;64760;53.404;23.498;2022-10-31T00:08:06;99906.34;;;5.21;95.88
73594;BME280;64760;53.404;23.498;2022-10-31T00:10:32;99898.31;;;5.05;95.33
73594;BME280;64760;53.404;23.498;2022-10-31T00:12:58;99914.81;;;5.17;95.49
73594;BME280;64760;53.404;23.498;2022-10-31T00:15:25;99901.53;;;5.17;95.73
73594;BME280;64760;53.404;23.498;2022-10-31T00:17:51;99912.56;;;5.38;95.85
73594;BME280;64760;53.404;23.498;2022-10-31T00:20:17;99917.09;;;5.46;95.57
73594;BME280;64760;53.404;23.498;2022-10-31T00:22:43;99904.69;;;5.20;95.84
73594;BME280;64760;53.404;23.498;2022-10-31T00:25:09;99907.91;;;5.06;95.67
73594;BME280;64760;53.404;23.498;2022-10-31T00:27:36;99906.03;;;5.25;96.30
73594;BME280;64760;53.404;23.498;2022-10-31T00:30:02;99924.56;;;5.42;96.35
73594;BME280;64760;53.404;23.498;2022-10-31T00:32:29;99921.09;;;5.50;96.02
73594;BME280;64760;53.404;23.498;2022-10-31T00:34:56;99896.34;;;5.15;95.55
73594;BME280;64760;53.404;23.498;2022-10-31T00:37:22;99937.03;;;5.16;95.95
73594;BME280;64760;53.404;23.498;2022-10-31T00:39:49;99925.41;;;4.91;95.57
73594;BME280;64760;53.404;23.498;2022-10-31T00:42:15;99936.94;;;5.00;95.86
73594;BME280;64760;53.404;23.498;2022-10-31T00:44:44;99937.53;;;4.94;96.17
73594;BME280;64760;53.404;23.498;2022-10-31T00:47:10;99928.13;;;4.73;95.48
73594;BME280;64760;53.404;23.498;2022-10-31T00:49:38;99934.81;;;5.03;96.46
73594;BME280;64760;53.404;23.498;2022-10-31T00:52:04;99945.66;;;5.44;96.92
73594;BME280;64760;53.404;23.498;2022-10-31T00:54:30;99943.19;;;5.50;96.70
73594;BME280;64760;53.404;23.498;2022-10-31T00:56:57;99949.69;;;5.48;97.04
73594;BME280;64760;53.404;23.498;2022-10-31T00:59:24;99938.50;;;5.36;96.95
73594;BME280;64760;53.404;23.498;2022-10-31T01:01:50;99949.81;;;5.46;97.05
73594;BME280;64760;53.404;23.498;2022-10-31T01:04:16;99945.09;;;5.66;96.69
73594;BME280;64760;53.404;23.498;2022-10-31T01:06:42;99953.94;;;5.75;97.05
73594;BME280;64760;53.404;23.498;2022-10-31T01:09:08;99945.81;;;5.76;96.80
73594;BME280;64760;53.404;23.498;2022-10-31T01:11:35;99953.47;;;5.79;97.03
73594;BME280;64760;53.404;23.498;2022-10-31T01:14:03;99942.31;;;5.76;96.84
73594;BME280;64760;53.404;23.498;2022-10-31T01:16:31;99946.47;;;5.78;96.44
73594;BME280;64760;53.404;23.498;2022-10-31T01:18:57;99945.78;;;5.68;97.03
73594;BME280;64760;53.404;23.498;2022-10-31T01:21:28;99957.06;;;5.70;96.73
73594;BME280;64760;53.404;23.498;2022-10-31T01:23:58;99953.53;;;5.61;96.96
73594;BME280;64760;53.404;23.498;2022-10-31T01:26:29;99950.28;;;5.42;96.55
73594;BME280;64760;53.404;23.498;2022-10-31T01:29:07;99950.94;;;5.36;96.56
73594;BME280;64760;53.404;23.498;2022-10-31T01:31:36;99945.31;;;5.39;96.80
73594;BME280;64760;53.404;23.498;2022-10-31T01:34:05;99942.91;;;5.28;96.85
73594;BME280;64760;53.404;23.498;2022-10-31T01:36:37;99924.41;;;5.44;97.03
73594;BME280;64760;53.404;23.498;2022-10-31T01:39:10;99939.16;;;5.38;97.44
73594;BME280;64760;53.404;23.498;2022-10-31T01:41:42;99951.88;;;5.52;97.42
73594;BME280;64760;53.404;23.498;2022-10-31T01:46:49;99953.09;;;5.74;97.77
73594;BME280;64760;53.404;23.498;2022-10-31T01:49:31;99954.78;;;5.75;97.33
73594;BME280;64760;53.404;23.498;2022-10-31T01:52:07;99943.47;;;5.73;97.77
73594;BME280;64760;53.404;23.498;2022-10-31T01:54:41;99954.19;;;5.89;97.47
73594;BME280;64760;53.404;23.498;2022-10-31T01:57:10;99959.34;;;5.91;97.36
73594;BME280;64760;53.404;23.498;2022-10-31T01:59:43;99955.78;;;5.82;97.19
73594;BME280;64760;53.404;23.498;2022-10-31T02:02:12;99956.81;;;5.81;96.67
73594;BME280;64760;53.404;23.498;2022-10-31T02:04:39;99952.38;;;5.56;96.91
73594;BME280;64760;53.404;23.498;2022-10-31T02:07:13;99953.50;;;5.53;96.80
73594;BME280;64760;53.404;23.498;2022-10-31T02:09:40;99970.34;;;5.62;97.07
73594;BME280;64760;53.404;23.498;2022-10-31T02:12:09;99983.00;;;5.68;96.72
73594;BME280;64760;53.404;23.498;2022-10-31T02:14:37;99974.66;;;5.63;97.17
73594;BME280;64760;53.404;23.498;2022-10-31T02:17:04;99972.69;;;5.65;96.82
73594;BME280;64760;53.404;23.498;2022-10-31T02:19:38;99966.00;;;5.53;97.16
73594;BME280;64760;53.404;23.498;2022-10-31T02:22:15;99963.06;;;5.38;96.76
73594;BME280;64760;53.404;23.498;2022-10-31T02:30:29;99964.16;;;4.76;96.02
73594;BME280;64760;53.404;23.498;2022-10-31T02:33:15;99971.34;;;4.66;95.69
73594;BME280;64760;53.404;23.498;2022-10-31T02:35:52;99946.44;;;4.41;96.01
73594;BME280;64760;53.404;23.498;2022-10-31T02:41:50;99974.41;;;4.53;95.72
73594;BME280;64760;53.404;23.498;2022-10-31T02:44:38;99968.81;;;4.56;95.89
73594;BME280;64760;53.404;23.498;2022-10-31T02:47:17;99976.69;;;4.48;95.93
73594;BME280;64760;53.404;23.498;2022-10-31T02:52:28;99973.94;;;4.40;95.68
73594;BME280;64760;53.404;23.498;2022-10-31T02:58:02;99975.16;;;4.28;95.84
73594;BME280;64760;53.404;23.498;2022-10-31T03:03:24;99983.56;;;4.06;95.71
73594;BME280;64760;53.404;23.498;2022-10-31T03:05:55;99993.50;;;3.94;95.58
73594;BME280;64760;53.404;23.498;2022-10-31T03:10:56;100001.63;;;3.65;95.59
73594;BME280;64760;53.404;23.498;2022-10-31T03:16:29;99989.91;;;3.21;95.61
73594;BME280;64760;53.404;23.498;2022-10-31T03:19:05;100011.66;;;3.15;95.36
73594;BME280;64760;53.404;23.498;2022-10-31T03:21:37;99990.66;;;2.85;95.77
73594;BME280;64760;53.404;23.498;2022-10-31T03:27:51;99987.75;;;2.69;95.73
73594;BME280;64760;53.404;23.498;2022-10-31T03:30:18;99991.66;;;2.65;95.79
73594;BME280;64760;53.404;23.498;2022-10-31T03:32:58;100010.88;;;2.76;95.78
73594;BME280;64760;53.404;23.498;2022-10-31T03:35:28;99988.44;;;2.71;96.07
73594;BME280;64760;53.404;23.498;2022-10-31T03:37:55;100023.69;;;2.81;95.96
73594;BME280;64760;53.404;23.498;2022-10-31T03:40:23;99989.03;;;2.74;96.15
73594;BME280;64760;53.404;23.498;2022-10-31T03:43:01;99999.28;;;2.87;96.04
73594;BME280;64760;53.404;23.498;2022-10-31T03:45:33;99994.16;;;2.76;96.23
73594;BME280;64760;53.404;23.498;2022-10-31T03:48:03;100019.91;;;2.83;96.10
73594;BME280;64760;53.404;23.498;2022-10-31T03:50:43;100017.56;;;2.90;96.69
73594;BME280;64760;53.404;23.498;2022-10-31T03:53:17;100009.19;;;2.75;96.25
73594;BME280;64760;53.404;23.498;2022-10-31T03:56:16;100022.03;;;2.70;96.10
73594;BME280;64760;53.404;23.498;2022-10-31T03:58:51;100013.94;;;2.81;96.73
73594;BME280;64760;53.404;23.498;2022-10-31T04:01:20;100024.78;;;2.88;96.51
73594;BME280;64760;53.404;23.498;2022-10-31T04:03:47;100024.38;;;2.93;96.31
73594;BME280;64760;53.404;23.498;2022-10-31T04:06:16;100032.19;;;2.94;96.63
73594;BME280;64760;53.404;23.498;2022-10-31T04:08:51;100020.75;;;2.84;96.69
73594;BME280;64760;53.404;23.498;2022-10-31T04:11:22;100039.97;;;3.05;96.93
73594;BME280;64760;53.404;23.498;2022-10-31T04:14:11;100044.59;;;2.94;96.62
73594;BME280;64760;53.404;23.498;2022-10-31T04:16:43;100031.22;;;2.76;96.73
73594;BME280;64760;53.404;23.498;2022-10-31T04:19:11;100047.09;;;2.66;96.32
73594;BME280;64760;53.404;23.498;2022-10-31T04:21:38;100043.59;;;2.56;96.41
73594;BME280;64760;53.404;23.498;2022-10-31T04:24:04;100038.31;;;2.47;96.45
73594;BME280;64760;53.404;23.498;2022-10-31T04:26:31;100025.06;;;2.37;96.30
73594;BME280;64760;53.404;23.498;2022-10-31T04:28:57;100054.88;;;2.49;96.53
73594;BME280;64760;53.404;23.498;2022-10-31T04:31:27;100044.28;;;2.49;97.02
73594;BME280;64760;53.404;23.498;2022-10-31T04:33:53;100037.59;;;2.45;96.65
73594;BME280;64760;53.404;23.498;2022-10-31T04:36:20;100046.66;;;2.52;96.50
73594;BME280;64760;53.404;23.498;2022-10-31T04:38:47;100052.09;;;2.50;96.42
73594;BME280;64760;53.404;23.498;2022-10-31T04:41:27;100032.72;;;2.30;96.35
73594;BME280;64760;53.404;23.498;2022-10-31T04:43:58;100051.91;;;2.32;96.33
73594;BME280;64760;53.404;23.498;2022-10-31T04:46:26;100048.88;;;2.37;96.24
73594;BME280;64760;53.404;23.498;2022-10-31T04:48:53;100031.44;;;2.25;96.56
73594;BME280;64760;53.404;23.498;2022-10-31T04:51:19;100051.75;;;2.24;96.46
73594;BME280;64760;53.404;23.498;2022-10-31T04:53:45;100048.00;;;2.17;96.78
73594;BME280;64760;53.404;23.498;2022-10-31T04:56:30;100038.09;;;2.10;96.71
73594;BME280;64760;53.404;23.498;2022-10-31T04:58:59;100035.97;;;2.04;96.53
73594;BME280;64760;53.404;23.498;2022-10-31T05:01:28;100060.78;;;2.12;96.74
73594;BME280;64760;53.404;23.498;2022-10-31T05:03:55;100053.81;;;2.11;96.80
73594;BME280;64760;53.404;23.498;2022-10-31T05:06:21;100048.28;;;2.14;96.58
73594;BME280;64760;53.404;23.498;2022-10-31T05:08:47;100057.84;;;2.15;96.74
73594;BME280;64760;53.404;23.498;2022-10-31T05:11:14;100071.06;;;2.15;96.81
73594;BME280;64760;53.404;23.498;2022-10-31T05:13:42;100061.06;;;2.09;96.81
73594;BME280;64760;53.404;23.498;2022-10-31T05:16:11;100064.94;;;2.05;96.46
73594;BME280;64760;53.404;23.498;2022-10-31T05:18:40;100066.44;;;1.98;96.48
73594;BME280;64760;53.404;23.498;2022-10-31T05:21:25;100041.66;;;1.89;96.43
73594;BME280;64760;53.404;23.498;2022-10-31T05:23:53;100049.44;;;1.91;96.90
73594;BME280;64760;53.404;23.498;2022-10-31T05:26:23;100072.03;;;2.05;96.93
73594;BME280;64760;53.404;23.498;2022-10-31T05:28:50;100062.00;;;2.08;96.50
73594;BME280;64760;53.404;23.498;2022-10-31T05:31:16;100055.69;;;2.40;96.98
73594;BME280;64760;53.404;23.498;2022-10-31T05:33:43;100064.63;;;2.48;96.87
73594;BME280;64760;53.404;23.498;2022-10-31T05:36:27;100056.84;;;2.66;97.36
73594;BME280;64760;53.404;23.498;2022-10-31T05:38:57;100067.00;;;2.99;97.42
73594;BME280;64760;53.404;23.498;2022-10-31T05:41:25;100052.66;;;2.92;97.25
73594;BME280;64760;53.404;23.498;2022-10-31T05:43:59;100074.13;;;3.08;97.30
73594;BME280;64760;53.404;23.498;2022-10-31T05:46:28;100057.97;;;2.82;96.74
73594;BME280;64760;53.404;23.498;2022-10-31T05:49:17;100084.31;;;2.74;97.06
73594;BME280;64760;53.404;23.498;2022-10-31T05:52:22;100090.28;;;2.86;97.08
73594;BME280;64760;53.404;23.498;2022-10-31T05:54:55;100090.13;;;2.88;96.62
73594;BME280;64760;53.404;23.498;2022-10-31T05:57:21;100068.13;;;2.87;96.33
73594;BME280;64760;53.404;23.498;2022-10-31T05:59:47;100081.38;;;2.77;96.05
73594;BME280;64760;53.404;23.498;2022-10-31T06:02:14;100093.75;;;2.77;96.24
73594;BME280;64760;53.404;23.498;2022-10-31T06:04:58;100084.44;;;2.73;96.36
73594;BME280;64760;53.404;23.498;2022-10-31T06:07:26;100097.81;;;2.91;96.43
73594;BME280;64760;53.404;23.498;2022-10-31T06:09:52;100097.25;;;2.97;96.31
73594;BME280;64760;53.404;23.498;2022-10-31T06:12:20;100103.13;;;3.10;96.36
73594;BME280;64760;53.404;23.498;2022-10-31T06:15:13;100091.81;;;3.17;96.44
73594;BME280;64760;53.404;23.498;2022-10-31T06:17:39;100101.28;;;3.29;96.48
73594;BME280;64760;53.404;23.498;2022-10-31T06:20:37;100084.97;;;3.15;96.35
73594;BME280;64760;53.404;23.498;2022-10-31T06:23:05;100099.59;;;3.28;96.49
73594;BME280;64760;53.404;23.498;2022-10-31T06:25:32;100106.47;;;3.21;96.54
73594;BME280;64760;53.404;23.498;2022-10-31T06:27:59;100107.00;;;3.25;96.75
73594;BME280;64760;53.404;23.498;2022-10-31T06:30:34;100086.50;;;3.27;96.50
73594;BME280;64760;53.404;23.498;2022-10-31T06:33:03;100099.75;;;3.37;96.39
73594;BME280;64760;53.404;23.498;2022-10-31T06:35:30;100113.00;;;3.37;95.96
73594;BME280;64760;53.404;23.498;2022-10-31T06:37:58;100116.19;;;3.11;96.36
73594;BME280;64760;53.404;23.498;2022-10-31T06:40:34;100106.72;;;2.99;96.38
73594;BME280;64760;53.404;23.498;2022-10-31T06:43:17;100122.75;;;2.98;96.48
73594;BME280;64760;53.404;23.498;2022-10-31T06:45:44;100122.75;;;2.88;96.25
73594;BME280;64760;53.404;23.498;2022-10-31T06:48:21;100108.53;;;2.79;96.66
73594;BME280;64760;53.404;23.498;2022-10-31T06:51:15;100132.94;;;2.93;96.60
73594;BME280;64760;53.404;23.498;2022-10-31T06:53:41;100119.25;;;2.78;96.39
73594;BME280;64760;53.404;23.498;2022-10-31T06:56:10;100130.56;;;2.90;96.65
73594;BME280;64760;53.404;23.498;2022-10-31T06:58:42;100123.03;;;2.85;96.87
73594;BME280;64760;53.404;23.498;2022-10-31T07:01:11;100111.16;;;2.79;97.03
73594;BME280;64760;53.404;23.498;2022-10-31T07:03:37;100134.31;;;2.97;97.15
73594;BME280;64760;53.404;23.498;2022-10-31T07:06:03;100144.50;;;3.11;97.03
73594;BME280;64760;53.404;23.498;2022-10-31T07:08:31;100137.28;;;3.22;97.25
73594;BME280;64760;53.404;23.498;2022-10-31T07:10:57;100139.47;;;3.37;97.33
73594;BME280;64760;53.404;23.498;2022-10-31T07:13:24;100112.03;;;3.38;97.21
73594;BME280;64760;53.404;23.498;2022-10-31T07:16:02;100132.47;;;3.55;97.75
73594;BME280;64760;53.404;23.498;2022-10-31T07:18:29;100127.16;;;3.64;97.85
73594;BME280;64760;53.404;23.498;2022-10-31T07:20:55;100134.41;;;3.82;97.91
73594;BME280;64760;53.404;23.498;2022-10-31T07:23:22;100118.31;;;3.93;97.61
73594;BME280;64760;53.404;23.498;2022-10-31T07:26:08;100123.78;;;4.18;97.32
73594;BME280;64760;53.404;23.498;2022-10-31T07:28:39;100144.19;;;4.45;97.28
73594;BME280;64760;53.404;23.498;2022-10-31T07:31:06;100144.09;;;4.64;97.51
73594;BME280;64760;53.404;23.498;2022-10-31T07:33:33;100136.84;;;4.84;97.17
73594;BME280;64760;53.404;23.498;2022-10-31T07:36:25;100122.31;;;4.79;96.90
73594;BME280;64760;53.404;23.498;2022-10-31T07:38:53;100155.28;;;5.03;96.23
73594;BME280;64760;53.404;23.498;2022-10-31T07:41:20;100150.66;;;5.23;95.77
73594;BME280;64760;53.404;23.498;2022-10-31T07:43:46;100127.66;;;5.32;95.58
73594;BME280;64760;53.404;23.498;2022-10-31T07:46:15;100127.97;;;5.29;95.30
73594;BME280;64760;53.404;23.498;2022-10-31T07:49:08;100160.38;;;5.50;95.29
73594;BME280;64760;53.404;23.498;2022-10-31T07:51:52;100145.09;;;5.52;95.16
73594;BME280;64760;53.404;23.498;2022-10-31T07:54:37;100159.06;;;5.54;95.46
73594;BME280;64760;53.404;23.498;2022-10-31T07:57:03;100146.41;;;5.48;95.98
73594;BME280;64760;53.404;23.498;2022-10-31T07:59:29;100160.28;;;5.85;95.07
73594;BME280;64760;53.404;23.498;2022-10-31T08:01:55;100139.44;;;5.73;95.56
73594;BME280;64760;53.404;23.498;2022-10-31T08:04:31;100165.09;;;5.82;95.83
73594;BME280;64760;53.404;23.498;2022-10-31T08:07:15;100159.72;;;5.91;95.90
73594;BME280;64760;53.404;23.498;2022-10-31T08:09:47;100160.50;;;6.09;96.10
73594;BME280;64760;53.404;23.498;2022-10-31T08:12:20;100149.38;;;6.14;96.43
73594;BME280;64760;53.404;23.498;2022-10-31T08:14:46;100168.66;;;6.42;95.74
73594;BME280;64760;53.404;23.498;2022-10-31T08:17:14;100169.88;;;6.55;95.45
73594;BME280;64760;53.404;23.498;2022-10-31T08:20:00;100168.72;;;6.58;95.06
73594;BME280;64760;53.404;23.498;2022-10-31T08:22:33;100159.38;;;6.54;95.21
73594;BME280;64760;53.404;23.498;2022-10-31T08:25:01;100155.81;;;6.79;94.37
73594;BME280;64760;53.404;23.498;2022-10-31T08:27:28;100156.00;;;6.86;94.40
73594;BME280;64760;53.404;23.498;2022-10-31T08:29:58;100165.38;;;7.06;94.27
73594;BME280;64760;53.404;23.498;2022-10-31T08:32:24;100173.41;;;7.30;93.20
73594;BME280;64760;53.404;23.498;2022-10-31T08:35:09;100157.91;;;7.18;93.86
73594;BME280;64760;53.404;23.498;2022-10-31T08:37:55;100151.09;;;7.23;93.24
73594;BME280;64760;53.404;23.498;2022-10-31T08:40:26;100169.94;;;7.38;93.60
73594;BME280;64760;53.404;23.498;2022-10-31T08:43:19;100177.28;;;7.52;92.39
73594;BME280;64760;53.404;23.498;2022-10-31T08:45:49;100158.28;;;7.55;91.69
73594;BME280;64760;53.404;23.498;2022-10-31T08:48:22;100152.94;;;7.55;91.69
73594;BME280;64760;53.404;23.498;2022-10-31T08:50:49;100168.75;;;7.56;92.66
73594;BME280;64760;53.404;23.498;2022-10-31T08:53:18;100166.28;;;7.71;91.68
73594;BME280;64760;53.404;23.498;2022-10-31T08:55:50;100173.59;;;7.77;92.40
73594;BME280;64760;53.404;23.498;2022-10-31T08:58:24;100165.94;;;7.74;91.40
73594;BME280;64760;53.404;23.498;2022-10-31T09:00:54;100181.94;;;7.90;90.99
73594;BME280;64760;53.404;23.498;2022-10-31T09:03:24;100176.25;;;7.85;90.82
73594;BME280;64760;53.404;23.498;2022-10-31T09:05:55;100171.25;;;7.90;91.58
73594;BME280;64760;53.404;23.498;2022-10-31T09:08:21;100183.28;;;7.94;91.62
73594;BME280;64760;53.404;23.498;2022-10-31T09:10:48;100176.44;;;8.00;90.49
73594;BME280;64760;53.404;23.498;2022-10-31T09:13:20;100176.25;;;8.01;91.53
73594;BME280;64760;53.404;23.498;2022-10-31T09:16:22;100170.53;;;8.13;89.10
73594;BME280;64760;53.404;23.498;2022-10-31T09:18:48;100205.91;;;8.39;88.82
73594;BME280;64760;53.404;23.498;2022-10-31T09:21:16;100194.84;;;8.58;86.17
73594;BME280;64760;53.404;23.498;2022-10-31T09:23:43;100198.19;;;8.52;87.49
73594;BME280;64760;53.404;23.498;2022-10-31T09:26:09;100209.19;;;8.57;86.28
73594;BME280;64760;53.404;23.498;2022-10-31T09:28:46;100204.53;;;8.59;88.02
73594;BME280;64760;53.404;23.498;2022-10-31T09:31:14;100187.16;;;8.63;87.82
73594;BME280;64760;53.404;23.498;2022-10-31T09:33:55;100205.94;;;8.78;85.88
73594;BME280;64760;53.404;23.498;2022-10-31T09:36:37;100217.44;;;8.86;85.42
73594;BME280;64760;53.404;23.498;2022-10-31T09:39:07;100209.47;;;8.78;87.84
73594;BME280;64760;53.404;23.498;2022-10-31T09:50:18;100224.03;;;9.07;85.19
73594;BME280;64760;53.404;23.498;2022-10-31T09:52:56;100222.31;;;9.14;86.43
73594;BME280;64760;53.404;23.498;2022-10-31T09:55:44;100228.34;;;9.08;83.90
73594;BME280;64760;53.404;23.498;2022-10-31T09:58:16;100224.00;;;9.15;83.13
73594;BME280;64760;53.404;23.498;2022-10-31T10:00:43;100223.16;;;9.14;85.40
73594;BME280;64760;53.404;23.498;2022-10-31T10:03:43;100224.31;;;9.12;86.55
73594;BME280;64760;53.404;23.498;2022-10-31T10:06:34;100226.06;;;8.96;84.24
73594;BME280;64760;53.404;23.498;2022-10-31T10:09:31;100213.91;;;8.94;83.01
73594;BME280;64760;53.404;23.498;2022-10-31T10:17:53;100233.69;;;9.47;82.73
73594;BME280;64760;53.404;23.498;2022-10-31T10:23:51;100237.88;;;9.64;74.82
73594;BME280;64760;53.404;23.498;2022-10-31T10:28:41;100230.59;;;9.58;74.71
73594;BME280;64760;53.404;23.498;2022-10-31T10:31:29;100237.00;;;9.71;75.57
73594;BME280;64760;53.404;23.498;2022-10-31T10:34:01;100241.34;;;9.72;78.02
73594;BME280;64760;53.404;23.498;2022-10-31T10:39:11;100224.13;;;9.75;79.11
73594;BME280;64760;53.404;23.498;2022-10-31T10:41:47;100208.66;;;9.62;76.11
73594;BME280;64760;53.404;23.498;2022-10-31T10:44:45;100226.28;;;9.94;74.15
73594;BME280;64760;53.404;23.498;2022-10-31T10:47:40;100199.97;;;9.98;72.33
73594;BME280;64760;53.404;23.498;2022-10-31T10:50:15;100211.38;;;10.14;73.32
73594;BME280;64760;53.404;23.498;2022-10-31T10:55:45;100186.44;;;10.14;74.08
73594;BME280;64760;53.404;23.498;2022-10-31T10:58:16;100208.28;;;10.40;70.89
73594;BME280;64760;53.404;23.498;2022-10-31T11:00:44;100211.34;;;10.52;70.89
73594;BME280;64760;53.404;23.498;2022-10-31T11:03:16;100203.03;;;10.61;69.12
73594;BME280;64760;53.404;23.498;2022-10-31T11:06:03;100202.19;;;10.75;67.56
73594;BME280;64760;53.404;23.498;2022-10-31T11:08:34;100191.56;;;10.67;68.36
73594;BME280;64760;53.404;23.498;2022-10-31T11:11:17;100211.63;;;10.71;67.67
73594;BME280;64760;53.404;23.498;2022-10-31T11:13:48;100211.72;;;10.63;66.00
73594;BME280;64760;53.404;23.498;2022-10-31T11:19:07;100192.31;;;10.47;67.15
73594;BME280;64760;53.404;23.498;2022-10-31T11:21:34;100202.03;;;10.62;67.63
73594;BME280;64760;53.404;23.498;2022-10-31T11:26:41;100211.91;;;10.76;67.57
73594;BME280;64760;53.404;23.498;2022-10-31T11:29:22;100187.00;;;10.97;64.91
73594;BME280;64760;53.404;23.498;2022-10-31T11:31:53;100192.47;;;10.89;65.17
73594;BME280;64760;53.404;23.498;2022-10-31T11:34:32;100203.28;;;10.96;64.61
73594;BME280;64760;53.404;23.498;2022-10-31T11:37:09;100181.84;;;10.81;64.29
73594;BME280;64760;53.404;23.498;2022-10-31T11:39:43;100203.75;;;10.84;65.43
73594;BME280;64760;53.404;23.498;2022-10-31T11:42:11;100185.84;;;10.70;66.92
73594;BME280;64760;53.404;23.498;2022-10-31T11:44:42;100194.69;;;10.86;65.38
73594;BME280;64760;53.404;23.498;2022-10-31T11:47:14;100201.03;;;10.99;66.87
73594;BME280;64760;53.404;23.498;2022-10-31T11:49:44;100199.84;;;11.02;67.17
73594;BME280;64760;53.404;23.498;2022-10-31T11:52:16;100206.88;;;11.03;68.00
73594;BME280;64760;53.404;23.498;2022-10-31T11:57:42;100202.44;;;11.10;67.98
73594;BME280;64760;53.404;23.498;2022-10-31T12:00:33;100179.13;;;10.96;67.56
73594;BME280;64760;53.404;23.498;2022-10-31T12:08:18;100198.13;;;11.30;67.55
73594;BME280;64760;53.404;23.498;2022-10-31T12:11:02;100172.72;;;11.11;67.08
73594;BME280;64760;53.404;23.498;2022-10-31T12:13:37;100192.59;;;11.17;68.67
73594;BME280;64760;53.404;23.498;2022-10-31T12:16:16;100171.25;;;11.09;68.39
73594;BME280;64760;53.404;23.498;2022-10-31T12:18:50;100170.59;;;11.07;68.85
73594;BME280;64760;53.404;23.498;2022-10-31T12:21:44;100188.63;;;11.13;67.74
73594;BME280;64760;53.404;23.498;2022-10-31T12:24:57;100186.34;;;11.10;68.73
73594;BME280;64760;53.404;23.498;2022-10-31T12:30:19;100179.69;;;11.06;67.96
73594;BME280;64760;53.404;23.498;2022-10-31T12:43:46;100174.31;;;10.91;67.93
73594;BME280;64760;53.404;23.498;2022-10-31T12:46:29;100163.34;;;10.86;67.91
73594;BME280;64760;53.404;23.498;2022-10-31T12:49:17;100168.72;;;10.86;68.05
73594;BME280;64760;53.404;23.498;2022-10-31T12:54:45;100161.34;;;10.73;69.05
73594;BME280;64760;53.404;23.498;2022-10-31T12:57:26;100172.78;;;10.82;69.58
73594;BME280;64760;53.404;23.498;2022-10-31T13:00:02;100172.34;;;10.78;68.54
73594;BME280;64760;53.404;23.498;2022-10-31T13:02:39;100176.03;;;10.77;68.57
73594;BME280;64760;53.404;23.498;2022-10-31T13:05:30;100164.03;;;10.73;68.93
73594;BME280;64760;53.404;23.498;2022-10-31T13:08:06;100150.88;;;10.64;68.61
73594;BME280;64760;53.404;23.498;2022-10-31T13:10:43;100148.13;;;10.57;67.72
73594;BME280;64760;53.404;23.498;2022-10-31T13:14:23;100169.47;;;10.65;68.13
73594;BME280;64760;53.404;23.498;2022-10-31T13:16:22;100168.19;;;10.61;67.92
73594;BME280;64760;53.404;23.498;2022-10-31T13:21:36;100166.91;;;10.43;68.87
73594;BME280;64760;53.404;23.498;2022-10-31T13:24:10;100153.88;;;10.25;69.71
73594;BME280;64760;53.404;23.498;2022-10-31T13:26:47;100166.34;;;10.32;70.77
73594;BME280;64760;53.404;23.498;2022-10-31T13:29:20;100150.56;;;10.23;69.69
73594;BME280;64760;53.404;23.498;2022-10-31T13:31:49;100166.88;;;10.28;69.20
73594;BME280;64760;53.404;23.498;2022-10-31T13:34:20;100163.19;;;10.29;69.64
73594;BME280;64760;53.404;23.498;2022-10-31T13:39:42;100160.66;;;10.13;70.68
73594;BME280;64760;53.404;23.498;2022-10-31T13:44:52;100166.25;;;10.03;71.28
73594;BME280;64760;53.404;23.498;2022-10-31T13:47:27;100160.75;;;10.05;71.23
73594;BME280;64760;53.404;23.498;2022-10-31T13:52:46;100137.41;;;9.76;71.75
73594;BME280;64760;53.404;23.498;2022-10-31T13:55:43;100157.81;;;9.77;71.78
73594;BME280;64760;53.404;23.498;2022-10-31T14:01:21;100161.00;;;9.58;73.25
73594;BME280;64760;53.404;23.498;2022-10-31T14:04:04;100139.88;;;9.40;72.42
73594;BME280;64760;53.404;23.498;2022-10-31T14:06:36;100151.25;;;9.42;72.65
73594;BME280;64760;53.404;23.498;2022-10-31T14:09:03;100149.94;;;9.38;72.78
73594;BME280;64760;53.404;23.498;2022-10-31T14:11:30;100145.28;;;9.32;73.06
73594;BME280;64760;53.404;23.498;2022-10-31T14:13:57;100147.34;;;9.30;73.63
73594;BME280;64760;53.404;23.498;2022-10-31T14:16:30;100131.88;;;9.17;73.90
73594;BME280;64760;53.404;23.498;2022-10-31T14:19:01;100154.56;;;9.21;74.55
73594;BME280;64760;53.404;23.498;2022-10-31T14:21:35;100149.94;;;9.15;74.82
73594;BME280;64760;53.404;23.498;2022-10-31T14:24:29;100133.16;;;8.99;74.68
73594;BME280;64760;53.404;23.498;2022-10-31T14:26:59;100150.81;;;9.08;74.41
73594;BME280;64760;53.404;23.498;2022-10-31T14:29:30;100149.56;;;8.95;75.03
73594;BME280;64760;53.404;23.498;2022-10-31T14:32:06;100152.28;;;8.87;75.73
73594;BME280;64760;53.404;23.498;2022-10-31T14:46:09;100118.34;;;8.10;79.18
73594;BME280;64760;53.404;23.498;2022-10-31T14:48:50;100141.19;;;8.13;79.72
73594;BME280;64760;53.404;23.498;2022-10-31T14:51:22;100116.72;;;7.85;80.08
73594;BME280;64760;53.404;23.498;2022-10-31T14:53:51;100119.06;;;7.80;80.46
73594;BME280;64760;53.404;23.498;2022-10-31T14:56:24;100119.25;;;7.70;80.70
73594;BME280;64760;53.404;23.498;2022-10-31T14:58:53;100145.59;;;7.73;81.17
73594;BME280;64760;53.404;23.498;2022-10-31T15:01:24;100152.44;;;7.60;81.41
73594;BME280;64760;53.404;23.498;2022-10-31T15:04:02;100144.44;;;7.43;82.01
73594;BME280;64760;53.404;23.498;2022-10-31T15:06:46;100146.28;;;7.35;82.61
73594;BME280;64760;53.404;23.498;2022-10-31T15:09:33;100145.44;;;7.34;82.80
73594;BME280;64760;53.404;23.498;2022-10-31T15:12:16;100131.59;;;7.15;83.13